sensor_id;sensor_type;location;lat;lon;timestamp;temperature;humidity
30473;DHT22;17263;48.160;11.452;2023-09-30T00:01:24;16.80;99.90
30473;DHT22;17263;48.160;11.452;2023-09-30T00:03:50;16.70;99.90
30473;DHT22;17263;48.160;11.452;2023-09-30T00:06:16;16.70;99.90
30473;DHT22;17263;48.160;11.452;2023-09-30T00:08:42;16.70;99.90
30473;DHT22;17263;48.160;11.452;2023-09-30T00:11:09;16.60;99.90
30473;DHT22;17263;48.160;11.452;2023-09-30T00:13:35;16.60;99.90
30473;DHT22;17263;48.160;11.452;2023-09-30T00:16:01;16.50;99.90
30473;DHT22;17263;48.160;11.452;2023-09-30T00:18:27;16.50;99.90
30473;DHT22;17263;48.160;11.452;2023-09-30T00:20:53;16.50;99.90
30473;DHT22;17263;48.160;11.452;2023-09-30T00:23:19;16.40;99.90
30473;DHT22;17263;48.160;11.452;2023-09-30T00:25:47;16.40;99.90
30473;DHT22;17263;48.160;11.452;2023-09-30T00:28:16;16.40;99.90
30473;DHT22;17263;48.160;11.452;2023-09-30T00:30:42;16.40;99.90
30473;DHT22;17263;48.160;11.452;2023-09-30T00:33:08;16.30;99.90
30473;DHT22;17263;48.160;11.452;2023-09-30T00:35:34;16.30;99.90
30473;DHT22;17263;48.160;11.452;2023-09-30T00:38:00;16.30;99.90
30473;DHT22;17263;48.160;11.452;2023-09-30T00:40:26;16.30;99.90
30473;DHT22;17263;48.160;11.452;2023-09-30T00:42:52;16.20;99.90
30473;DHT22;17263;48.160;11.452;2023-09-30T00:45:18;16.20;99.90
30473;DHT22;17263;48.160;11.452;2023-09-30T00:47:44;16.10;99.90
30473;DHT22;17263;48.160;11.452;2023-09-30T00:50:10;16.10;99.90
30473;DHT22;17263;48.160;11.452;2023-09-30T00:52:38;16.10;99.90
30473;DHT22;17263;48.160;11.452;2023-09-30T00:55:05;16.00;99.90
30473;DHT22;17263;48.160;11.452;2023-09-30T00:57:32;16.00;99.90
30473;DHT22;17263;48.160;11.452;2023-09-30T01:00:00;16.00;99.90
30473;DHT22;17263;48.160;11.452;2023-09-30T01:02:26;15.90;99.90
30473;DHT22;17263;48.160;11.452;2023-09-30T01:04:52;15.90;99.90
30473;DHT22;17263;48.160;11.452;2023-09-30T01:07:19;15.90;99.90
30473;DHT22;17263;48.160;11.452;2023-09-30T01:09:48;15.90;99.90
30473;DHT22;17263;48.160;11.452;2023-09-30T01:12:14;15.90;99.90
30473;DHT22;17263;48.160;11.452;2023-09-30T01:14:40;15.90;99.90
30473;DHT22;17263;48.160;11.452;2023-09-30T01:17:08;15.90;99.90
30473;DHT22;17263;48.160;11.452;2023-09-30T01:19:35;15.90;99.90
30473;DHT22;17263;48.160;11.452;2023-09-30T01:22:01;15.90;99.90
30473;DHT22;17263;48.160;11.452;2023-09-30T01:24:38;16.00;99.90
30473;DHT22;17263;48.160;11.452;2023-09-30T01:27:04;16.00;99.90
30473;DHT22;17263;48.160;11.452;2023-09-30T01:29:30;16.00;99.90
30473;DHT22;17263;48.160;11.452;2023-09-30T01:31:56;16.00;99.90
30473;DHT22;17263;48.160;11.452;2023-09-30T01:34:22;16.00;99.90
30473;DHT22;17263;48.160;11.452;2023-09-30T01:36:48;16.00;99.90
30473;DHT22;17263;48.160;11.452;2023-09-30T01:39:14;16.00;99.90
30473;DHT22;17263;48.160;11.452;2023-09-30T01:41:41;16.00;99.90
30473;DHT22;17263;48.160;11.452;2023-09-30T01:44:07;15.90;99.90
30473;DHT22;17263;48.160;11.452;2023-09-30T01:46:33;15.80;99.90
30473;DHT22;17263;48.160;11.452;2023-09-30T01:48:59;15.90;99.90
30473;DHT22;17263;48.160;11.452;2023-09-30T01:51:25;15.80;99.90
30473;DHT22;17263;48.160;11.452;2023-09-30T01:53:51;15.80;99.90
30473;DHT22;17263;48.160;11.452;2023-09-30T01:56:17;15.80;99.90
30473;DHT22;17263;48.160;11.452;2023-09-30T01:58:43;15.80;99.90
30473;DHT22;17263;48.160;11.452;2023-09-30T02:01:10;15.70;99.90
30473;DHT22;17263;48.160;11.452;2023-09-30T02:03:36;15.70;99.90
30473;DHT22;17263;48.160;11.452;2023-09-30T02:06:02;15.70;99.90
30473;DHT22;17263;48.160;11.452;2023-09-30T02:08:29;15.60;99.90
30473;DHT22;17263;48.160;11.452;2023-09-30T02:10:55;15.70;99.90
30473;DHT22;17263;48.160;11.452;2023-09-30T02:13:21;15.60;99.90
30473;DHT22;17263;48.160;11.452;2023-09-30T02:15:47;15.70;99.90
30473;DHT22;17263;48.160;11.452;2023-09-30T02:18:13;15.70;99.90
30473;DHT22;17263;48.160;11.452;2023-09-30T02:20:40;15.70;99.90
30473;DHT22;17263;48.160;11.452;2023-09-30T02:23:09;15.70;99.90
30473;DHT22;17263;48.160;11.452;2023-09-30T02:25:39;15.70;99.90
30473;DHT22;17263;48.160;11.452;2023-09-30T02:28:06;15.80;99.90
30473;DHT22;17263;48.160;11.452;2023-09-30T02:30:32;15.80;99.90
30473;DHT22;17263;48.160;11.452;2023-09-30T02:32:58;15.80;99.90
30473;DHT22;17263;48.160;11.452;2023-09-30T02:35:25;15.90;99.90
30473;DHT22;17263;48.160;11.452;2023-09-30T02:37:52;15.90;99.90
30473;DHT22;17263;48.160;11.452;2023-09-30T02:40:18;16.00;99.90
30473;DHT22;17263;48.160;11.452;2023-09-30T02:42:46;16.00;99.90
30473;DHT22;17263;48.160;11.452;2023-09-30T02:45:12;16.00;99.90
30473;DHT22;17263;48.160;11.452;2023-09-30T02:47:39;16.00;99.90
30473;DHT22;17263;48.160;11.452;2023-09-30T02:50:06;16.00;99.90
30473;DHT22;17263;48.160;11.452;2023-09-30T02:52:42;15.90;99.90
30473;DHT22;17263;48.160;11.452;2023-09-30T02:55:11;15.90;99.90
30473;DHT22;17263;48.160;11.452;2023-09-30T02:57:38;16.00;99.90
30473;DHT22;17263;48.160;11.452;2023-09-30T03:00:09;16.00;99.90
30473;DHT22;17263;48.160;11.452;2023-09-30T03:03:02;16.00;99.90
30473;DHT22;17263;48.160;11.452;2023-09-30T03:05:28;16.00;99.90
30473;DHT22;17263;48.160;11.452;2023-09-30T03:07:56;16.00;99.90
30473;DHT22;17263;48.160;11.452;2023-09-30T03:10:22;16.00;99.90
30473;DHT22;17263;48.160;11.452;2023-09-30T03:12:53;16.00;99.90
30473;DHT22;17263;48.160;11.452;2023-09-30T03:15:19;16.00;99.90
30473;DHT22;17263;48.160;11.452;2023-09-30T03:17:45;15.90;99.90
30473;DHT22;17263;48.160;11.452;2023-09-30T03:20:12;15.90;99.90
30473;DHT22;17263;48.160;11.452;2023-09-30T03:22:41;16.00;99.90
30473;DHT22;17263;48.160;11.452;2023-09-30T03:25:11;15.90;99.90
30473;DHT22;17263;48.160;11.452;2023-09-30T03:27:37;15.90;99.90
30473;DHT22;17263;48.160;11.452;2023-09-30T03:30:05;15.90;99.90
30473;DHT22;17263;48.160;11.452;2023-09-30T03:32:31;15.90;99.90
30473;DHT22;17263;48.160;11.452;2023-09-30T03:34:59;15.90;99.90
30473;DHT22;17263;48.160;11.452;2023-09-30T03:37:27;15.90;99.90
30473;DHT22;17263;48.160;11.452;2023-09-30T03:39:56;15.90;99.90
30473;DHT22;17263;48.160;11.452;2023-09-30T03:42:22;15.90;99.90
30473;DHT22;17263;48.160;11.452;2023-09-30T03:44:48;15.90;99.90
30473;DHT22;17263;48.160;11.452;2023-09-30T03:47:15;15.90;99.90
30473;DHT22;17263;48.160;11.452;2023-09-30T03:49:42;15.90;99.90
30473;DHT22;17263;48.160;11.452;2023-09-30T03:52:12;15.90;99.90
30473;DHT22;17263;48.160;11.452;2023-09-30T03:54:39;15.90;99.90
30473;DHT22;17263;48.160;11.452;2023-09-30T03:57:07;15.90;99.90
30473;DHT22;17263;48.160;11.452;2023-09-30T03:59:33;16.00;99.90
30473;DHT22;17263;48.160;11.452;2023-09-30T04:01:59;16.00;99.90
30473;DHT22;17263;48.160;11.452;2023-09-30T04:04:26;16.00;99.90
30473;DHT22;17263;48.160;11.452;2023-09-30T04:06:52;16.00;99.90
30473;DHT22;17263;48.160;11.452;2023-09-30T04:09:19;16.00;99.90
30473;DHT22;17263;48.160;11.452;2023-09-30T04:11:45;16.00;99.90
30473;DHT22;17263;48.160;11.452;2023-09-30T04:14:12;16.10;99.90
30473;DHT22;17263;48.160;11.452;2023-09-30T04:16:38;16.10;99.90
30473;DHT22;17263;48.160;11.452;2023-09-30T04:19:04;16.10;99.90
30473;DHT22;17263;48.160;11.452;2023-09-30T04:21:30;16.10;99.90
30473;DHT22;17263;48.160;11.452;2023-09-30T04:24:00;16.10;99.90
30473;DHT22;17263;48.160;11.452;2023-09-30T04:26:26;16.10;99.90
30473;DHT22;17263;48.160;11.452;2023-09-30T04:28:52;16.10;99.90
30473;DHT22;17263;48.160;11.452;2023-09-30T04:31:20;16.10;99.90
30473;DHT22;17263;48.160;11.452;2023-09-30T04:33:48;16.10;99.90
30473;DHT22;17263;48.160;11.452;2023-09-30T04:36:14;16.10;99.90
30473;DHT22;17263;48.160;11.452;2023-09-30T04:38:40;16.10;99.90
30473;DHT22;17263;48.160;11.452;2023-09-30T04:41:07;16.10;99.90
30473;DHT22;17263;48.160;11.452;2023-09-30T04:43:34;16.10;99.90
30473;DHT22;17263;48.160;11.452;2023-09-30T04:46:00;16.10;99.90
30473;DHT22;17263;48.160;11.452;2023-09-30T04:48:27;16.10;99.90
30473;DHT22;17263;48.160;11.452;2023-09-30T04:50:54;16.10;99.90
30473;DHT22;17263;48.160;11.452;2023-09-30T04:53:21;16.10;99.90
30473;DHT22;17263;48.160;11.452;2023-09-30T04:55:49;16.10;99.90
30473;DHT22;17263;48.160;11.452;2023-09-30T04:58:16;16.00;99.90
30473;DHT22;17263;48.160;11.452;2023-09-30T05:00:42;16.00;99.90
30473;DHT22;17263;48.160;11.452;2023-09-30T05:03:09;15.90;99.90
30473;DHT22;17263;48.160;11.452;2023-09-30T05:05:35;15.90;99.90
30473;DHT22;17263;48.160;11.452;2023-09-30T05:08:01;15.80;99.90
30473;DHT22;17263;48.160;11.452;2023-09-30T05:10:28;15.80;99.90
30473;DHT22;17263;48.160;11.452;2023-09-30T05:12:55;15.70;99.90
30473;DHT22;17263;48.160;11.452;2023-09-30T05:15:21;15.60;99.90
30473;DHT22;17263;48.160;11.452;2023-09-30T05:17:48;15.60;99.90
30473;DHT22;17263;48.160;11.452;2023-09-30T05:20:16;15.60;99.90
30473;DHT22;17263;48.160;11.452;2023-09-30T05:22:46;15.60;99.90
30473;DHT22;17263;48.160;11.452;2023-09-30T05:25:15;15.70;99.90
30473;DHT22;17263;48.160;11.452;2023-09-30T05:27:44;15.70;99.90
30473;DHT22;17263;48.160;11.452;2023-09-30T05:30:11;15.70;99.90
30473;DHT22;17263;48.160;11.452;2023-09-30T05:32:37;15.70;99.90
30473;DHT22;17263;48.160;11.452;2023-09-30T05:35:06;15.70;99.90
30473;DHT22;17263;48.160;11.452;2023-09-30T05:37:42;15.70;99.90
30473;DHT22;17263;48.160;11.452;2023-09-30T05:40:09;15.70;99.90
30473;DHT22;17263;48.160;11.452;2023-09-30T05:42:48;15.70;99.90
30473;DHT22;17263;48.160;11.452;2023-09-30T05:45:17;15.70;99.90
30473;DHT22;17263;48.160;11.452;2023-09-30T05:47:43;15.70;99.90
30473;DHT22;17263;48.160;11.452;2023-09-30T05:50:10;15.70;99.90
30473;DHT22;17263;48.160;11.452;2023-09-30T05:52:42;15.70;99.90
30473;DHT22;17263;48.160;11.452;2023-09-30T05:55:10;15.70;99.90
30473;DHT22;17263;48.160;11.452;2023-09-30T05:57:36;15.70;99.90
30473;DHT22;17263;48.160;11.452;2023-09-30T06:00:04;15.80;99.90
30473;DHT22;17263;48.160;11.452;2023-09-30T06:02:37;15.80;99.90
30473;DHT22;17263;48.160;11.452;2023-09-30T06:05:03;15.80;99.90
30473;DHT22;17263;48.160;11.452;2023-09-30T06:07:29;15.90;99.90
30473;DHT22;17263;48.160;11.452;2023-09-30T06:09:55;15.90;99.90
30473;DHT22;17263;48.160;11.452;2023-09-30T06:12:21;15.90;99.90
30473;DHT22;17263;48.160;11.452;2023-09-30T06:14:47;16.00;99.90
30473;DHT22;17263;48.160;11.452;2023-09-30T06:17:13;16.00;99.90
30473;DHT22;17263;48.160;11.452;2023-09-30T06:19:40;16.00;99.90
30473;DHT22;17263;48.160;11.452;2023-09-30T06:22:06;16.00;99.90
30473;DHT22;17263;48.160;11.452;2023-09-30T06:24:33;16.10;99.90
30473;DHT22;17263;48.160;11.452;2023-09-30T06:26:59;16.10;99.90
30473;DHT22;17263;48.160;11.452;2023-09-30T06:29:25;16.20;99.90
30473;DHT22;17263;48.160;11.452;2023-09-30T06:31:52;16.20;99.90
30473;DHT22;17263;48.160;11.452;2023-09-30T06:34:18;16.30;99.90
30473;DHT22;17263;48.160;11.452;2023-09-30T06:36:44;16.30;99.90
30473;DHT22;17263;48.160;11.452;2023-09-30T06:39:11;16.30;99.90
30473;DHT22;17263;48.160;11.452;2023-09-30T06:41:37;16.40;99.90
30473;DHT22;17263;48.160;11.452;2023-09-30T06:44:03;16.40;99.90
30473;DHT22;17263;48.160;11.452;2023-09-30T06:46:29;16.40;99.90
30473;DHT22;17263;48.160;11.452;2023-09-30T06:48:55;16.50;99.90
30473;DHT22;17263;48.160;11.452;2023-09-30T06:51:21;16.50;99.90
30473;DHT22;17263;48.160;11.452;2023-09-30T06:53:47;16.60;99.90
30473;DHT22;17263;48.160;11.452;2023-09-30T06:56:13;16.70;99.90
30473;DHT22;17263;48.160;11.452;2023-09-30T06:58:39;16.70;99.90
30473;DHT22;17263;48.160;11.452;2023-09-30T07:01:05;16.90;99.90
30473;DHT22;17263;48.160;11.452;2023-09-30T07:03:32;16.90;99.90
30473;DHT22;17263;48.160;11.452;2023-09-30T07:05:59;17.00;99.90
30473;DHT22;17263;48.160;11.452;2023-09-30T07:08:29;17.00;99.90
30473;DHT22;17263;48.160;11.452;2023-09-30T07:10:55;17.00;99.90
30473;DHT22;17263;48.160;11.452;2023-09-30T07:13:22;17.20;99.90
30473;DHT22;17263;48.160;11.452;2023-09-30T07:15:48;17.30;99.90
30473;DHT22;17263;48.160;11.452;2023-09-30T07:18:15;17.30;99.90
30473;DHT22;17263;48.160;11.452;2023-09-30T07:20:41;17.20;99.90
30473;DHT22;17263;48.160;11.452;2023-09-30T07:23:07;17.10;99.90
30473;DHT22;17263;48.160;11.452;2023-09-30T07:25:34;17.10;99.90
30473;DHT22;17263;48.160;11.452;2023-09-30T07:28:01;17.40;99.90
30473;DHT22;17263;48.160;11.452;2023-09-30T07:30:27;17.70;99.90
30473;DHT22;17263;48.160;11.452;2023-09-30T07:32:53;17.90;99.90
30473;DHT22;17263;48.160;11.452;2023-09-30T07:35:19;18.20;99.90
30473;DHT22;17263;48.160;11.452;2023-09-30T07:37:45;18.30;99.90
30473;DHT22;17263;48.160;11.452;2023-09-30T07:40:12;18.30;99.90
30473;DHT22;17263;48.160;11.452;2023-09-30T07:42:38;18.30;99.90
30473;DHT22;17263;48.160;11.452;2023-09-30T07:45:05;18.40;99.90
30473;DHT22;17263;48.160;11.452;2023-09-30T07:47:31;18.60;99.90
30473;DHT22;17263;48.160;11.452;2023-09-30T07:50:02;18.90;99.90
30473;DHT22;17263;48.160;11.452;2023-09-30T07:52:32;19.10;99.90
30473;DHT22;17263;48.160;11.452;2023-09-30T07:54:58;19.10;99.90
30473;DHT22;17263;48.160;11.452;2023-09-30T07:57:24;19.30;99.90
30473;DHT22;17263;48.160;11.452;2023-09-30T07:59:50;19.50;99.90
30473;DHT22;17263;48.160;11.452;2023-09-30T08:02:16;19.70;99.90
30473;DHT22;17263;48.160;11.452;2023-09-30T08:04:43;19.90;99.90
30473;DHT22;17263;48.160;11.452;2023-09-30T08:07:09;20.00;99.90
30473;DHT22;17263;48.160;11.452;2023-09-30T08:09:35;20.00;99.90
30473;DHT22;17263;48.160;11.452;2023-09-30T08:12:03;19.90;99.90
30473;DHT22;17263;48.160;11.452;2023-09-30T08:14:30;19.90;99.90
30473;DHT22;17263;48.160;11.452;2023-09-30T08:16:56;19.80;99.90
30473;DHT22;17263;48.160;11.452;2023-09-30T08:19:22;19.80;99.90
30473;DHT22;17263;48.160;11.452;2023-09-30T08:21:48;19.70;99.90
30473;DHT22;17263;48.160;11.452;2023-09-30T08:24:14;19.60;99.90
30473;DHT22;17263;48.160;11.452;2023-09-30T08:26:40;19.80;99.90
30473;DHT22;17263;48.160;11.452;2023-09-30T08:29:07;20.20;99.90
30473;DHT22;17263;48.160;11.452;2023-09-30T08:31:33;20.60;99.90
30473;DHT22;17263;48.160;11.452;2023-09-30T08:33:59;21.00;99.90
30473;DHT22;17263;48.160;11.452;2023-09-30T08:36:25;21.10;99.90
30473;DHT22;17263;48.160;11.452;2023-09-30T08:38:51;21.20;99.90
30473;DHT22;17263;48.160;11.452;2023-09-30T08:41:31;21.10;99.90
30473;DHT22;17263;48.160;11.452;2023-09-30T08:44:00;21.10;99.90
30473;DHT22;17263;48.160;11.452;2023-09-30T08:46:31;20.90;99.90
30473;DHT22;17263;48.160;11.452;2023-09-30T08:48:59;20.80;99.90
30473;DHT22;17263;48.160;11.452;2023-09-30T08:51:27;20.30;99.90
30473;DHT22;17263;48.160;11.452;2023-09-30T08:53:55;20.10;99.90
30473;DHT22;17263;48.160;11.452;2023-09-30T08:56:26;20.00;99.90
30473;DHT22;17263;48.160;11.452;2023-09-30T08:58:58;19.80;99.90
30473;DHT22;17263;48.160;11.452;2023-09-30T09:01:29;19.70;99.90
30473;DHT22;17263;48.160;11.452;2023-09-30T09:03:55;19.90;99.90
30473;DHT22;17263;48.160;11.452;2023-09-30T09:06:23;20.00;99.90
30473;DHT22;17263;48.160;11.452;2023-09-30T09:08:50;20.20;99.90
30473;DHT22;17263;48.160;11.452;2023-09-30T09:11:16;20.40;99.90
30473;DHT22;17263;48.160;11.452;2023-09-30T09:13:48;20.50;99.90
30473;DHT22;17263;48.160;11.452;2023-09-30T09:16:16;20.60;99.90
30473;DHT22;17263;48.160;11.452;2023-09-30T09:18:45;20.60;99.90
30473;DHT22;17263;48.160;11.452;2023-09-30T09:21:18;20.50;99.90
30473;DHT22;17263;48.160;11.452;2023-09-30T09:23:46;20.50;99.90
30473;DHT22;17263;48.160;11.452;2023-09-30T09:26:31;20.50;99.90
30473;DHT22;17263;48.160;11.452;2023-09-30T09:29:02;20.40;99.90
30473;DHT22;17263;48.160;11.452;2023-09-30T09:31:33;20.20;99.90
30473;DHT22;17263;48.160;11.452;2023-09-30T09:34:03;20.10;99.90
30473;DHT22;17263;48.160;11.452;2023-09-30T09:36:43;20.10;99.90
30473;DHT22;17263;48.160;11.452;2023-09-30T09:39:10;20.10;99.90
30473;DHT22;17263;48.160;11.452;2023-09-30T09:41:54;20.00;99.90
30473;DHT22;17263;48.160;11.452;2023-09-30T09:44:24;20.00;99.90
30473;DHT22;17263;48.160;11.452;2023-09-30T09:46:53;20.00;99.90
30473;DHT22;17263;48.160;11.452;2023-09-30T09:49:21;20.10;99.90
30473;DHT22;17263;48.160;11.452;2023-09-30T09:51:48;20.10;99.90
30473;DHT22;17263;48.160;11.452;2023-09-30T09:54:15;20.10;99.90
30473;DHT22;17263;48.160;11.452;2023-09-30T09:56:44;20.20;99.90
30473;DHT22;17263;48.160;11.452;2023-09-30T09:59:12;20.20;99.90
30473;DHT22;17263;48.160;11.452;2023-09-30T10:01:42;20.30;99.90
30473;DHT22;17263;48.160;11.452;2023-09-30T10:04:10;20.20;99.90
30473;DHT22;17263;48.160;11.452;2023-09-30T10:06:37;20.20;99.90
30473;DHT22;17263;48.160;11.452;2023-09-30T10:09:09;20.30;99.90
30473;DHT22;17263;48.160;11.452;2023-09-30T10:11:38;20.20;99.90
30473;DHT22;17263;48.160;11.452;2023-09-30T10:14:04;20.20;99.90
30473;DHT22;17263;48.160;11.452;2023-09-30T10:19:18;20.20;99.90
30473;DHT22;17263;48.160;11.452;2023-09-30T10:24:41;20.30;99.90
30473;DHT22;17263;48.160;11.452;2023-09-30T10:40:58;20.10;99.90
30473;DHT22;17263;48.160;11.452;2023-09-30T10:43:39;20.00;99.90
30473;DHT22;17263;48.160;11.452;2023-09-30T10:48:53;20.00;99.90
30473;DHT22;17263;48.160;11.452;2023-09-30T10:51:20;20.10;99.90
30473;DHT22;17263;48.160;11.452;2023-09-30T10:53:53;20.10;99.90
30473;DHT22;17263;48.160;11.452;2023-09-30T10:56:23;20.00;99.90
30473;DHT22;17263;48.160;11.452;2023-09-30T10:58:53;20.00;99.90
30473;DHT22;17263;48.160;11.452;2023-09-30T11:01:21;20.10;99.90
30473;DHT22;17263;48.160;11.452;2023-09-30T11:03:48;20.10;99.90
30473;DHT22;17263;48.160;11.452;2023-09-30T11:06:20;20.20;99.90
30473;DHT22;17263;48.160;11.452;2023-09-30T11:08:56;20.00;99.90
30473;DHT22;17263;48.160;11.452;2023-09-30T11:13:58;19.90;99.90
30473;DHT22;17263;48.160;11.452;2023-09-30T11:16:24;19.90;99.90
30473;DHT22;17263;48.160;11.452;2023-09-30T11:18:53;19.90;99.90
30473;DHT22;17263;48.160;11.452;2023-09-30T11:21:20;20.00;99.90
30473;DHT22;17263;48.160;11.452;2023-09-30T11:23:46;20.10;99.90
30473;DHT22;17263;48.160;11.452;2023-09-30T11:26:12;20.10;99.90
30473;DHT22;17263;48.160;11.452;2023-09-30T11:28:41;20.10;99.90
30473;DHT22;17263;48.160;11.452;2023-09-30T11:31:14;20.10;99.90
30473;DHT22;17263;48.160;11.452;2023-09-30T11:33:54;20.00;99.90
30473;DHT22;17263;48.160;11.452;2023-09-30T11:36:23;20.10;99.90
30473;DHT22;17263;48.160;11.452;2023-09-30T11:38:50;20.10;99.90
30473;DHT22;17263;48.160;11.452;2023-09-30T11:41:18;20.10;99.90
30473;DHT22;17263;48.160;11.452;2023-09-30T11:44:11;20.00;99.90
30473;DHT22;17263;48.160;11.452;2023-09-30T11:46:55;20.00;99.90
30473;DHT22;17263;48.160;11.452;2023-09-30T11:49:39;20.10;99.90
30473;DHT22;17263;48.160;11.452;2023-09-30T11:52:10;20.10;99.90
30473;DHT22;17263;48.160;11.452;2023-09-30T11:54:41;20.10;99.90
30473;DHT22;17263;48.160;11.452;2023-09-30T11:57:13;20.10;99.90
30473;DHT22;17263;48.160;11.452;2023-09-30T11:59:46;20.20;99.90
30473;DHT22;17263;48.160;11.452;2023-09-30T12:02:13;20.10;99.90
30473;DHT22;17263;48.160;11.452;2023-09-30T12:04:44;20.00;99.90
30473;DHT22;17263;48.160;11.452;2023-09-30T12:07:11;19.80;99.90
30473;DHT22;17263;48.160;11.452;2023-09-30T12:09:37;19.70;99.90
30473;DHT22;17263;48.160;11.452;2023-09-30T12:12:05;19.70;99.90
30473;DHT22;17263;48.160;11.452;2023-09-30T12:14:35;19.60;99.90
30473;DHT22;17263;48.160;11.452;2023-09-30T12:17:01;19.80;99.90
30473;DHT22;17263;48.160;11.452;2023-09-30T12:19:27;19.70;99.90
30473;DHT22;17263;48.160;11.452;2023-09-30T12:21:53;19.70;99.90
30473;DHT22;17263;48.160;11.452;2023-09-30T12:24:19;19.60;99.90
30473;DHT22;17263;48.160;11.452;2023-09-30T12:26:48;19.60;99.90
30473;DHT22;17263;48.160;11.452;2023-09-30T12:29:19;19.70;99.90
30473;DHT22;17263;48.160;11.452;2023-09-30T12:31:45;19.70;99.90
30473;DHT22;17263;48.160;11.452;2023-09-30T12:34:15;19.60;99.90
30473;DHT22;17263;48.160;11.452;2023-09-30T12:36:42;19.60;99.90
30473;DHT22;17263;48.160;11.452;2023-09-30T12:39:09;19.60;99.90
30473;DHT22;17263;48.160;11.452;2023-09-30T12:41:39;19.70;99.90
30473;DHT22;17263;48.160;11.452;2023-09-30T12:44:06;19.60;99.90
30473;DHT22;17263;48.160;11.452;2023-09-30T12:46:36;19.70;99.90
30473;DHT22;17263;48.160;11.452;2023-09-30T12:49:06;19.80;99.90
30473;DHT22;17263;48.160;11.452;2023-09-30T12:51:35;19.90;99.90
30473;DHT22;17263;48.160;11.452;2023-09-30T12:54:05;20.10;99.90
30473;DHT22;17263;48.160;11.452;2023-09-30T12:56:32;20.20;99.90
30473;DHT22;17263;48.160;11.452;2023-09-30T12:58:59;20.30;99.90
30473;DHT22;17263;48.160;11.452;2023-09-30T13:01:25;20.40;99.90
30473;DHT22;17263;48.160;11.452;2023-09-30T13:03:51;20.50;99.90
30473;DHT22;17263;48.160;11.452;2023-09-30T13:06:19;20.60;99.90
30473;DHT22;17263;48.160;11.452;2023-09-30T13:08:45;20.70;99.90
30473;DHT22;17263;48.160;11.452;2023-09-30T13:11:11;20.90;99.90
30473;DHT22;17263;48.160;11.452;2023-09-30T13:13:39;21.00;99.90
30473;DHT22;17263;48.160;11.452;2023-09-30T13:16:05;20.90;99.90
30473;DHT22;17263;48.160;11.452;2023-09-30T13:18:32;20.80;99.90
30473;DHT22;17263;48.160;11.452;2023-09-30T13:20:58;20.70;99.90
30473;DHT22;17263;48.160;11.452;2023-09-30T13:23:24;20.60;99.90
30473;DHT22;17263;48.160;11.452;2023-09-30T13:25:50;20.50;99.90
30473;DHT22;17263;48.160;11.452;2023-09-30T13:28:16;20.40;99.90
30473;DHT22;17263;48.160;11.452;2023-09-30T13:30:42;20.30;99.90
30473;DHT22;17263;48.160;11.452;2023-09-30T13:33:09;20.30;99.90
30473;DHT22;17263;48.160;11.452;2023-09-30T13:35:35;20.20;99.90
30473;DHT22;17263;48.160;11.452;2023-09-30T13:38:02;20.20;99.90
30473;DHT22;17263;48.160;11.452;2023-09-30T13:40:29;20.30;99.90
30473;DHT22;17263;48.160;11.452;2023-09-30T13:42:56;20.30;99.90
30473;DHT22;17263;48.160;11.452;2023-09-30T13:45:23;20.30;99.90
30473;DHT22;17263;48.160;11.452;2023-09-30T13:47:49;20.30;99.90
30473;DHT22;17263;48.160;11.452;2023-09-30T13:50:15;20.30;99.90
30473;DHT22;17263;48.160;11.452;2023-09-30T13:52:41;20.30;99.90
30473;DHT22;17263;48.160;11.452;2023-09-30T13:55:08;20.30;99.90
30473;DHT22;17263;48.160;11.452;2023-09-30T13:57:34;20.30;99.90
30473;DHT22;17263;48.160;11.452;2023-09-30T14:00:02;20.20;99.90
30473;DHT22;17263;48.160;11.452;2023-09-30T14:02:32;20.30;99.90
30473;DHT22;17263;48.160;11.452;2023-09-30T14:04:59;20.30;99.90
30473;DHT22;17263;48.160;11.452;2023-09-30T14:07:25;20.20;99.90
30473;DHT22;17263;48.160;11.452;2023-09-30T14:09:52;20.20;99.90
30473;DHT22;17263;48.160;11.452;2023-09-30T14:12:18;20.10;99.90
30473;DHT22;17263;48.160;11.452;2023-09-30T14:14:44;20.10;99.90
30473;DHT22;17263;48.160;11.452;2023-09-30T14:17:10;20.00;99.90
30473;DHT22;17263;48.160;11.452;2023-09-30T14:19:37;19.90;99.90
30473;DHT22;17263;48.160;11.452;2023-09-30T14:22:04;19.80;99.90
30473;DHT22;17263;48.160;11.452;2023-09-30T14:24:34;19.70;99.90
30473;DHT22;17263;48.160;11.452;2023-09-30T14:27:04;19.70;99.90
30473;DHT22;17263;48.160;11.452;2023-09-30T14:29:31;19.60;99.90
30473;DHT22;17263;48.160;11.452;2023-09-30T14:31:59;19.50;99.90
30473;DHT22;17263;48.160;11.452;2023-09-30T14:34:25;19.50;99.90
30473;DHT22;17263;48.160;11.452;2023-09-30T14:36:51;19.40;99.90
30473;DHT22;17263;48.160;11.452;2023-09-30T14:39:18;19.50;99.90
30473;DHT22;17263;48.160;11.452;2023-09-30T14:41:44;19.50;99.90
30473;DHT22;17263;48.160;11.452;2023-09-30T14:44:11;19.60;99.90
30473;DHT22;17263;48.160;11.452;2023-09-30T14:46:40;19.60;99.90
30473;DHT22;17263;48.160;11.452;2023-09-30T14:49:07;19.50;99.90
30473;DHT22;17263;48.160;11.452;2023-09-30T14:51:35;19.50;99.90
30473;DHT22;17263;48.160;11.452;2023-09-30T14:54:02;19.50;99.90
30473;DHT22;17263;48.160;11.452;2023-09-30T14:56:29;19.50;99.90
30473;DHT22;17263;48.160;11.452;2023-09-30T14:58:55;19.50;99.90
30473;DHT22;17263;48.160;11.452;2023-09-30T15:01:21;19.50;99.90
30473;DHT22;17263;48.160;11.452;2023-09-30T15:03:47;19.50;99.90
30473;DHT22;17263;48.160;11.452;2023-09-30T15:06:14;19.40;99.90
30473;DHT22;17263;48.160;11.452;2023-09-30T15:08:41;19.40;99.90
30473;DHT22;17263;48.160;11.452;2023-09-30T15:11:13;19.40;99.90
30473;DHT22;17263;48.160;11.452;2023-09-30T15:13:42;19.40;99.90
30473;DHT22;17263;48.160;11.452;2023-09-30T15:16:21;19.40;99.90
30473;DHT22;17263;48.160;11.452;2023-09-30T15:18:48;19.50;99.90
30473;DHT22;17263;48.160;11.452;2023-09-30T15:21:15;19.40;99.90
30473;DHT22;17263;48.160;11.452;2023-09-30T15:23:42;19.40;99.90
30473;DHT22;17263;48.160;11.452;2023-09-30T15:26:09;19.40;99.90
30473;DHT22;17263;48.160;11.452;2023-09-30T15:28:35;19.50;99.90
30473;DHT22;17263;48.160;11.452;2023-09-30T15:31:01;19.40;99.90
30473;DHT22;17263;48.160;11.452;2023-09-30T15:33:28;19.40;99.90
30473;DHT22;17263;48.160;11.452;2023-09-30T15:35:54;19.40;99.90
30473;DHT22;17263;48.160;11.452;2023-09-30T15:38:20;19.40;99.90
30473;DHT22;17263;48.160;11.452;2023-09-30T15:40:54;19.30;99.90
30473;DHT22;17263;48.160;11.452;2023-09-30T15:43:26;19.30;99.90